createdAt,value
2018-11-27T10:16:44.127Z,80.72
2018-11-27T10:17:21.863Z,80.81
2018-11-27T10:18:06.099Z,80.81
2018-11-27T10:18:43.844Z,80.33
2018-11-27T10:19:26.629Z,80.75
2018-11-27T10:20:00.148Z,80.75
2018-11-27T10:20:47.469Z,81.35
2018-11-27T10:21:25.326Z,81.35
2018-11-27T10:22:03.373Z,80.58
2018-11-27T10:22:41.105Z,80.67
2018-11-27T10:23:19.136Z,80.94
2018-11-27T10:23:57.039Z,80.94
2018-11-27T10:24:34.916Z,80.70
2018-11-27T10:25:15.881Z,80.91
2018-11-27T10:25:53.667Z,80.91
2018-11-27T10:26:31.397Z,80.74
2018-11-27T10:27:09.131Z,79.95
2018-11-27T10:27:47.314Z,79.95
2018-11-27T10:28:24.993Z,80.45
2018-11-27T10:29:02.737Z,80.47
2018-11-27T10:29:40.499Z,80.17
2018-11-27T10:30:21.981Z,80.17
2018-11-27T10:30:59.769Z,80.42
2018-11-27T10:31:37.720Z,80.46
2018-11-27T10:32:15.600Z,79.70
2018-11-27T10:32:54.070Z,79.70
2018-11-27T10:33:31.795Z,80.47
2018-11-27T10:34:10.451Z,80.51
2018-11-27T10:34:48.321Z,81.42
2018-11-27T10:35:40.140Z,81.42
2018-11-27T10:36:18.039Z,80.54
2018-11-27T10:36:55.739Z,80.52
2018-11-27T10:37:33.717Z,80.33
2018-11-27T10:38:10.695Z,80.33
2018-11-27T10:38:48.732Z,80.82
2018-11-27T10:39:27.310Z,81.07
2018-11-27T10:40:05.018Z,81.27
2018-11-27T10:40:42.706Z,81.42
2018-11-27T10:41:20.503Z,81.55
2018-11-27T10:41:58.221Z,81.68
2018-11-27T10:42:35.859Z,81.85
2018-11-27T10:43:19.498Z,81.96
2018-11-27T10:43:52.126Z,82.06
2018-11-27T10:44:29.816Z,81.99
2018-11-27T10:45:08.308Z,81.99
2018-11-27T10:45:46.066Z,82.35
2018-11-27T10:46:23.765Z,82.38
2018-11-27T10:47:01.420Z,82.38
2018-11-27T10:47:39.261Z,81.62
2018-11-27T10:48:17.074Z,81.62
2018-11-27T10:48:55.141Z,81.89
2018-11-27T10:49:32.856Z,81.33
2018-11-27T10:50:16.078Z,81.33
2018-11-27T10:50:56.592Z,81.70
2018-11-27T10:51:34.494Z,81.69
2018-11-27T10:52:12.323Z,81.53
2018-11-27T10:52:56.915Z,81.53
2018-11-27T10:53:35.168Z,81.36
2018-11-27T10:54:13.079Z,81.36
2018-11-27T10:54:50.874Z,81.67
2018-11-27T10:55:28.669Z,81.68
2018-11-27T10:56:06.440Z,81.78
2018-11-27T10:56:44.327Z,81.87
2018-11-27T10:57:22.166Z,81.96
2018-11-27T10:58:00.012Z,81.66
2018-11-27T10:58:37.760Z,81.66
2018-11-27T10:59:15.674Z,82.25
2018-11-27T10:59:53.604Z,82.32
2018-11-27T11:00:48.460Z,82.35
2018-11-27T11:01:43.412Z,82.41
2018-11-27T11:02:37.044Z,82.47
2018-11-27T11:03:33.171Z,82.62
2018-11-27T11:04:11.136Z,82.73
2018-11-27T11:04:49.033Z,82.83
2018-11-27T11:05:33.418Z,82.93
2018-11-27T11:06:54.028Z,83.03
2018-11-27T11:08:28.563Z,83.37
2018-11-27T11:09:08.878Z,83.51
2018-11-27T11:09:46.862Z,83.55
2018-11-27T11:10:24.706Z,83.69
2018-11-27T11:11:02.666Z,83.81
2018-11-27T11:11:40.557Z,83.93
2018-11-27T11:12:18.353Z,83.99
2018-11-27T11:12:56.110Z,84.06
2018-11-27T11:13:34.007Z,84.73
2018-11-27T11:14:11.878Z,84.73
2018-11-27T11:14:49.623Z,84.19
2018-11-27T11:15:27.507Z,84.21
2018-11-27T11:16:05.363Z,84.25
2018-11-27T11:16:43.301Z,84.28
2018-11-27T11:17:21.231Z,84.32
2018-11-27T11:17:59.285Z,84.32
2018-11-27T11:18:37.313Z,84.37
2018-11-27T11:19:18.344Z,84.37
2018-11-27T11:19:54.928Z,84.39
2018-11-27T11:20:32.790Z,84.38
2018-11-27T11:21:10.860Z,84.34
2018-11-27T11:21:48.912Z,84.39
2018-11-27T11:22:26.902Z,84.34
2018-11-27T11:23:04.849Z,84.35
2018-11-27T11:23:42.583Z,84.39
2018-11-27T11:24:20.279Z,84.37
2018-11-27T11:24:58.067Z,84.42
2018-11-27T11:25:35.896Z,84.44
2018-11-27T11:26:13.706Z,84.48
2018-11-27T11:26:51.534Z,84.51
2018-11-27T11:27:29.399Z,84.54
2018-11-27T11:28:07.294Z,84.59
2018-11-27T11:28:45.094Z,84.59
2018-11-27T11:29:22.757Z,84.61
2018-11-27T11:30:00.790Z,84.64
2018-11-27T11:30:38.858Z,84.70
2018-11-27T11:31:16.828Z,84.71
2018-11-27T11:31:54.876Z,84.71
2018-11-27T11:32:32.737Z,84.65
2018-11-27T11:33:11.426Z,84.63
2018-11-27T11:33:49.850Z,84.58
2018-11-27T11:34:27.785Z,84.53
2018-11-27T11:35:05.689Z,84.47
2018-11-27T11:35:43.540Z,84.46
2018-11-27T11:36:21.369Z,84.43
2018-11-27T11:36:59.329Z,84.38
2018-11-27T11:37:37.355Z,84.29
2018-11-27T11:38:15.273Z,84.23
2018-11-27T11:38:53.231Z,84.19
2018-11-27T11:39:30.988Z,84.17
2018-11-27T11:40:26.336Z,84.13
2018-11-27T11:41:04.096Z,84.12
2018-11-27T11:41:41.971Z,84.04
2018-11-27T11:42:19.963Z,84.06
2018-11-27T11:42:59.101Z,84.01
2018-11-27T11:43:37.218Z,84.04
2018-11-27T11:44:54.719Z,84.02
2018-11-27T11:45:49.828Z,83.98
2018-11-27T11:46:27.683Z,83.95
2018-11-27T11:47:23.747Z,83.93
2018-11-27T11:48:01.692Z,83.91
2018-11-27T11:48:39.558Z,83.94
2018-11-27T11:49:17.343Z,83.94
2018-11-27T11:49:55.043Z,83.97
2018-11-27T11:50:37.374Z,84.01
2018-11-27T11:51:26.519Z,84.01
2018-11-27T11:52:04.506Z,84.01
2018-11-27T11:52:45.336Z,84.01
2018-11-27T11:53:21.661Z,84.00
2018-11-27T11:53:59.259Z,84.01
2018-11-27T11:54:37.220Z,84.02
2018-11-27T11:55:16.541Z,84.04
2018-11-27T11:55:54.457Z,84.04
2018-11-27T11:56:32.287Z,84.04
2018-11-27T11:57:10.271Z,84.05
2018-11-27T11:57:48.344Z,84.06
2018-11-27T11:58:26.136Z,84.03
2018-11-27T11:59:04.145Z,83.99
2018-11-27T11:59:42.196Z,83.99
2018-11-27T12:00:25.675Z,84.09
2018-11-27T12:01:03.481Z,84.09
2018-11-27T12:01:42.152Z,84.05
2018-11-27T12:02:19.907Z,84.07
2018-11-27T12:02:57.859Z,84.06
2018-11-27T12:03:35.607Z,84.02
2018-11-27T12:04:13.334Z,84.02
2018-11-27T12:04:51.407Z,84.05
2018-11-27T12:05:29.201Z,84.05
2018-11-27T12:06:06.917Z,84.09
2018-11-27T12:06:44.813Z,84.12
2018-11-27T12:07:22.766Z,84.16
2018-11-27T12:08:00.461Z,84.17
2018-11-27T12:08:38.227Z,84.18
2018-11-27T12:09:16.222Z,84.15
2018-11-27T12:09:54.440Z,84.09
2018-11-27T12:10:32.183Z,84.11
2018-11-27T12:11:10.438Z,84.15
2018-11-27T12:11:48.191Z,84.15
2018-11-27T12:12:26.033Z,84.16
2018-11-27T12:13:03.750Z,84.17
2018-11-27T12:13:41.672Z,84.21
2018-11-27T12:14:19.635Z,84.26
2018-11-27T12:14:57.578Z,84.29
2018-11-27T12:15:35.318Z,84.35
2018-11-27T12:16:13.092Z,84.36
2018-11-27T12:16:50.790Z,84.37
2018-11-27T12:17:29.040Z,84.35
2018-11-27T12:18:07.221Z,84.26
2018-11-27T12:18:44.952Z,84.17
2018-11-27T12:19:22.747Z,84.14
2018-11-27T12:20:00.468Z,84.13
2018-11-27T12:20:38.335Z,84.10
2018-11-27T12:21:16.052Z,84.11
2018-11-27T12:21:53.859Z,84.11
2018-11-27T12:22:32.004Z,84.08
2018-11-27T12:23:10.944Z,84.07
2018-11-27T12:23:48.675Z,84.07
2018-11-27T12:24:26.400Z,84.07
2018-11-27T12:25:04.398Z,84.13
2018-11-27T12:25:42.820Z,84.16
2018-11-27T12:26:20.477Z,84.17
2018-11-27T12:26:58.318Z,84.17
2018-11-27T12:27:36.195Z,84.12
2018-11-27T12:28:15.101Z,84.15
2018-11-27T12:28:52.865Z,84.15
2018-11-27T12:29:30.643Z,84.16
2018-11-27T12:30:12.897Z,84.15
2018-11-27T12:30:50.582Z,84.17
2018-11-27T12:31:28.483Z,84.15
2018-11-27T12:32:06.453Z,84.18
2018-11-27T12:32:44.379Z,84.20
2018-11-27T12:33:22.076Z,84.26
2018-11-27T12:34:00.162Z,84.31
2018-11-27T12:34:37.909Z,84.37
2018-11-27T12:35:16.861Z,84.39
2018-11-27T12:35:54.715Z,84.37
2018-11-27T12:36:32.439Z,84.37
2018-11-27T12:37:10.464Z,84.41
2018-11-27T12:37:48.454Z,84.45
2018-11-27T12:38:26.178Z,84.48
2018-11-27T12:39:04.056Z,84.45
2018-11-27T12:39:41.926Z,84.43
2018-11-27T12:40:30.133Z,84.40
2018-11-27T12:41:10.335Z,84.45
2018-11-27T12:41:46.912Z,84.46
2018-11-27T12:42:24.616Z,84.44
2018-11-27T12:43:04.994Z,84.46
2018-11-27T12:43:43.947Z,84.47
2018-11-27T12:44:21.747Z,84.42
2018-11-27T12:44:59.676Z,84.38
2018-11-27T12:45:37.547Z,84.37
2018-11-27T12:46:15.255Z,84.44
2018-11-27T12:46:53.204Z,84.46
2018-11-27T12:47:31.137Z,84.49
2018-11-27T12:48:09.179Z,84.49
2018-11-27T12:48:46.897Z,84.50
2018-11-27T12:49:24.839Z,84.50
2018-11-27T12:50:53.317Z,84.59
2018-11-27T12:51:31.335Z,84.63
2018-11-27T12:52:09.075Z,84.73
2018-11-27T12:52:46.817Z,84.81
2018-11-27T12:53:24.573Z,84.89
2018-11-27T12:54:02.347Z,84.96
2018-11-27T12:54:40.254Z,85.03
2018-11-27T12:55:22.220Z,85.07
2018-11-27T12:56:00.247Z,85.10
2018-11-27T12:56:43.592Z,85.11
2018-11-27T12:57:16.375Z,85.12
2018-11-27T12:57:54.142Z,85.15
2018-11-27T12:58:32.290Z,85.19
2018-11-27T12:59:10.996Z,85.22
2018-11-27T12:59:50.135Z,85.27
2018-11-27T13:00:28.267Z,85.30
2018-11-27T13:01:09.477Z,85.35
2018-11-27T13:01:48.924Z,85.34
2018-11-27T13:02:27.463Z,85.33
2018-11-27T13:03:06.086Z,85.34
2018-11-27T13:03:43.815Z,85.42
2018-11-27T13:04:21.604Z,85.44
2018-11-27T13:05:02.325Z,85.48
2018-11-27T13:05:42.740Z,85.47
2018-11-27T13:06:27.705Z,85.47
2018-11-27T13:07:06.292Z,85.47
2018-11-27T13:07:44.065Z,85.47
2018-11-27T13:08:26.201Z,85.50
2018-11-27T13:09:04.806Z,85.51
2018-11-27T13:09:42.845Z,85.55
2018-11-27T13:10:23.146Z,85.56
2018-11-27T13:11:01.174Z,85.59
2018-11-27T13:11:38.994Z,85.65
2018-11-27T13:12:17.195Z,85.71
2018-11-27T13:12:55.009Z,85.73
2018-11-27T13:13:32.892Z,85.77
2018-11-27T13:14:11.127Z,85.79
2018-11-27T13:14:48.827Z,85.83
2018-11-27T13:15:26.778Z,85.87
2018-11-27T13:16:04.625Z,85.88
2018-11-27T13:16:42.364Z,85.91
2018-11-27T13:17:20.119Z,85.91
2018-11-27T13:17:58.245Z,85.93
2018-11-27T13:18:35.939Z,85.94
2018-11-27T13:19:13.729Z,85.97
2018-11-27T13:19:51.521Z,86.00
2018-11-27T13:20:29.235Z,86.05
2018-11-27T13:21:07.027Z,86.09
2018-11-27T13:21:45.000Z,86.08
2018-11-27T13:22:22.976Z,86.07
2018-11-27T13:23:01.064Z,86.08
2018-11-27T13:23:39.168Z,86.11
2018-11-27T13:24:17.025Z,86.16
2018-11-27T13:24:54.770Z,86.18
2018-11-27T13:25:32.668Z,86.20
2018-11-27T13:26:10.425Z,86.25
2018-11-27T13:26:48.623Z,86.27
2018-11-27T13:27:27.079Z,86.45
2018-11-27T13:28:04.979Z,86.45
2018-11-27T13:28:45.253Z,86.36
2018-11-27T13:29:23.034Z,86.38
2018-11-27T13:30:01.019Z,86.42
2018-11-27T13:31:10.723Z,86.47
2018-11-27T13:31:48.609Z,86.49
2018-11-27T13:32:26.351Z,86.53
2018-11-27T13:33:12.822Z,86.48
2018-11-27T13:34:12.198Z,86.48
2018-11-27T13:34:52.509Z,86.47
2018-11-27T13:35:28.802Z,86.47
2018-11-27T13:36:06.582Z,86.49
2018-11-27T13:36:44.712Z,86.45
2018-11-27T13:37:22.534Z,86.42
2018-11-27T13:38:00.536Z,86.38
2018-11-27T13:38:38.425Z,86.39
2018-11-27T13:39:39.599Z,86.36
2018-11-27T13:40:17.683Z,86.36
2018-11-27T13:40:55.698Z,86.43
2018-11-27T13:41:33.549Z,86.44
2018-11-27T13:42:12.042Z,86.40
2018-11-27T13:42:49.722Z,86.40
2018-11-27T13:43:31.737Z,86.41
2018-11-27T13:44:09.682Z,86.45
2018-11-27T13:44:47.534Z,86.47
2018-11-27T13:45:25.480Z,86.49
2018-11-27T13:46:04.028Z,86.55
2018-11-27T13:46:42.016Z,86.59
2018-11-27T13:47:20.010Z,86.64
2018-11-27T13:47:58.127Z,86.64
2018-11-27T13:48:36.554Z,86.65
2018-11-27T13:49:14.508Z,86.64
2018-11-27T13:49:52.476Z,86.63
2018-11-27T13:50:30.234Z,86.61
2018-11-27T13:51:09.199Z,86.57
2018-11-27T13:51:47.007Z,86.57
2018-11-27T13:52:24.857Z,86.56
2018-11-27T13:53:02.618Z,86.55
2018-11-27T13:53:40.497Z,86.57
2018-11-27T13:54:18.235Z,86.58
2018-11-27T13:54:56.011Z,86.61
2018-11-27T13:55:33.968Z,86.61
2018-11-27T13:56:11.969Z,86.61
2018-11-27T13:56:49.695Z,86.64
2018-11-27T13:57:27.412Z,86.64
2018-11-27T13:58:05.185Z,86.66
2018-11-27T13:58:43.057Z,86.68
2018-11-27T13:59:20.775Z,86.66
2018-11-27T13:59:58.572Z,86.64
2018-11-27T14:00:36.309Z,86.68
2018-11-27T14:01:14.117Z,86.68
2018-11-27T14:01:51.883Z,86.64
2018-11-27T14:02:29.603Z,86.61
2018-11-27T14:03:10.774Z,86.63
2018-11-27T14:03:46.037Z,86.65
2018-11-27T14:04:23.972Z,86.66
2018-11-27T14:05:01.784Z,86.69
2018-11-27T14:05:39.523Z,86.72
2018-11-27T14:06:17.447Z,86.72
2018-11-27T14:06:55.545Z,86.73
2018-11-27T14:07:33.653Z,86.79
2018-11-27T14:08:12.576Z,86.83
2018-11-27T14:08:50.527Z,86.89
2018-11-27T14:09:28.347Z,86.91
2018-11-27T14:10:06.145Z,86.95
2018-11-27T14:10:44.214Z,86.98
2018-11-27T14:11:22.025Z,87.21
2018-11-27T14:12:00.101Z,87.21
2018-11-27T14:12:38.552Z,87.01
2018-11-27T14:13:16.308Z,87.05
2018-11-27T14:13:54.121Z,87.08
2018-11-27T14:14:31.974Z,87.07
2018-11-27T14:15:13.449Z,87.08
2018-11-27T14:15:51.379Z,87.15
2018-11-27T14:16:29.310Z,87.21
2018-11-27T14:17:06.998Z,87.25
2018-11-27T14:17:44.847Z,87.21
2018-11-27T14:18:22.609Z,87.23
2018-11-27T14:19:00.334Z,87.23
2018-11-27T14:19:38.172Z,87.24
2018-11-27T14:20:16.038Z,87.23
2018-11-27T14:20:53.883Z,87.24
2018-11-27T14:21:31.884Z,87.26
2018-11-27T14:22:09.826Z,87.22
2018-11-27T14:22:51.157Z,87.20
2018-11-27T14:23:29.209Z,87.15
2018-11-27T14:24:07.409Z,87.11
2018-11-27T14:24:45.177Z,87.06
2018-11-27T14:25:22.977Z,87.03
2018-11-27T14:26:00.914Z,87.01
2018-11-27T14:26:38.828Z,87.01
2018-11-27T14:27:16.655Z,87.03
2018-11-27T14:27:54.955Z,87.04
2018-11-27T14:28:32.851Z,87.07
2018-11-27T14:29:10.483Z,87.08
2018-11-27T14:29:48.414Z,87.09
2018-11-27T14:30:29.005Z,87.11
2018-11-27T14:31:07.014Z,87.18
2018-11-27T14:31:46.039Z,87.18
2018-11-27T14:32:24.155Z,87.16
2018-11-27T14:33:02.506Z,87.18
2018-11-27T14:33:40.791Z,87.20
2018-11-27T14:34:19.091Z,87.22
2018-11-27T14:34:59.857Z,87.24
2018-11-27T14:35:35.165Z,86.95
2018-11-27T14:36:13.115Z,86.95
2018-11-27T14:36:51.109Z,87.19
2018-11-27T14:37:28.776Z,87.20
2018-11-27T14:38:06.519Z,87.22
2018-11-27T14:38:44.409Z,87.25
2018-11-27T14:39:23.019Z,87.27
2018-11-27T14:40:00.947Z,87.27
2018-11-27T14:40:38.985Z,87.43
2018-11-27T14:41:16.802Z,87.43
2018-11-27T14:41:54.559Z,87.25
2018-11-27T14:42:32.786Z,87.23
2018-11-27T14:43:13.890Z,87.23
2018-11-27T14:43:54.975Z,87.28
2018-11-27T14:44:34.014Z,87.39
2018-11-27T14:45:22.531Z,87.41
2018-11-27T14:46:01.729Z,87.41
2018-11-27T14:46:40.339Z,87.42
2018-11-27T14:47:19.055Z,87.43
2018-11-27T14:47:58.092Z,87.48
2018-11-27T14:48:35.844Z,87.32
2018-11-27T14:49:15.168Z,87.32
2018-11-27T14:49:53.311Z,87.54
2018-11-27T14:50:31.026Z,87.54
2018-11-27T14:51:08.934Z,87.53
2018-11-27T14:51:46.859Z,87.88
2018-11-27T14:52:25.193Z,87.88
2018-11-27T14:53:02.922Z,87.43
2018-11-27T14:53:40.599Z,87.40
2018-11-27T14:54:18.657Z,87.40
2018-11-27T14:54:56.464Z,87.79
2018-11-27T14:55:35.236Z,87.79
2018-11-27T14:56:13.000Z,87.35
2018-11-27T14:56:50.918Z,87.35
2018-11-27T14:57:28.774Z,87.38
2018-11-27T14:58:06.798Z,87.43
2018-11-27T14:58:44.771Z,87.60
2018-11-27T14:59:22.533Z,87.82
2018-11-27T15:00:00.345Z,87.88
2018-11-27T15:00:38.105Z,87.82
2018-11-27T15:01:15.888Z,87.83
2018-11-27T15:01:53.638Z,87.87
2018-11-27T15:02:31.380Z,88.27
2018-11-27T15:03:09.578Z,88.27
2018-11-27T15:03:47.540Z,87.93
2018-11-27T15:04:25.374Z,87.96
2018-11-27T15:05:03.029Z,87.93
2018-11-27T15:05:44.174Z,87.94
2018-11-27T15:06:21.920Z,87.94
2018-11-27T15:06:59.679Z,87.93
2018-11-27T15:07:37.557Z,87.87
2018-11-27T15:08:16.006Z,87.87
2018-11-27T15:08:53.764Z,87.49
2018-11-27T15:09:31.548Z,87.49
2018-11-27T15:10:11.057Z,87.84
2018-11-27T15:10:48.875Z,87.85
2018-11-27T15:11:26.668Z,87.83
2018-11-27T15:12:04.685Z,87.78
2018-11-27T15:12:42.439Z,87.76
2018-11-27T15:13:20.183Z,87.72
2018-11-27T15:13:57.925Z,87.75
2018-11-27T15:14:35.951Z,87.78
2018-11-27T15:15:17.424Z,87.78
2018-11-27T15:15:55.169Z,87.77
2018-11-27T15:16:32.977Z,87.73
2018-11-27T15:17:11.047Z,87.68
2018-11-27T15:17:48.851Z,87.66
2018-11-27T15:18:26.635Z,87.67
2018-11-27T15:19:04.501Z,87.25
2018-11-27T15:19:42.552Z,87.25
2018-11-27T15:20:24.694Z,87.65
2018-11-27T15:21:02.639Z,87.64
2018-11-27T15:21:40.352Z,87.68
2018-11-27T15:22:18.136Z,87.68
2018-11-27T15:22:55.961Z,87.69
2018-11-27T15:23:33.897Z,87.70
2018-11-27T15:24:11.758Z,87.65
2018-11-27T15:24:50.200Z,87.62
2018-11-27T15:25:27.913Z,87.58
2018-11-27T15:26:05.753Z,87.57
2018-11-27T15:26:43.698Z,87.56
2018-11-27T15:27:21.421Z,87.52
2018-11-27T15:27:59.292Z,87.52
2018-11-27T15:28:37.082Z,87.51
2018-11-27T15:29:14.794Z,87.52
2018-11-27T15:29:52.614Z,87.54
2018-11-27T15:30:31.424Z,87.54
2018-11-27T15:31:09.137Z,87.53
2018-11-27T15:31:46.924Z,87.50
2018-11-27T15:32:24.733Z,87.46
2018-11-27T15:33:02.956Z,87.47
2018-11-27T15:33:40.925Z,87.48
2018-11-27T15:34:18.794Z,87.53
2018-11-27T15:34:56.537Z,87.56
2018-11-27T15:35:34.421Z,87.58
2018-11-27T15:36:12.170Z,87.58
2018-11-27T15:36:50.077Z,87.62
2018-11-27T15:37:27.922Z,87.63
2018-11-27T15:38:05.832Z,87.63
2018-11-27T15:38:43.567Z,87.63
2018-11-27T15:39:21.275Z,87.62
2018-11-27T15:39:59.250Z,87.62
2018-11-27T15:40:37.182Z,87.62
2018-11-27T15:41:14.946Z,87.58
2018-11-27T15:41:52.676Z,87.56
2018-11-27T15:42:30.507Z,87.56
2018-11-27T15:43:08.294Z,87.52
2018-11-27T15:43:46.149Z,87.48
2018-11-27T15:44:23.838Z,87.46
2018-11-27T15:45:01.762Z,87.45
2018-11-27T15:45:39.596Z,87.47
2018-11-27T15:46:17.528Z,87.50
2018-11-27T15:46:55.228Z,87.53
2018-11-27T15:47:33.021Z,87.57
2018-11-27T15:48:11.765Z,87.61
2018-11-27T15:48:49.511Z,87.63
2018-11-27T15:49:27.384Z,87.62
2018-11-27T15:50:05.122Z,87.62
2018-11-27T15:50:42.853Z,87.58
2018-11-27T15:51:20.767Z,87.59
2018-11-27T15:52:53.255Z,87.56
2018-11-27T15:53:31.210Z,87.62
2018-11-27T15:54:08.949Z,87.67
2018-11-27T15:54:46.729Z,87.71
2018-11-27T15:55:34.389Z,87.72
2018-11-27T15:56:12.250Z,87.75
2018-11-27T15:56:49.947Z,87.78
2018-11-27T15:57:27.698Z,87.82
2018-11-27T15:58:13.316Z,87.83
2018-11-27T15:58:51.077Z,87.78
2018-11-27T15:59:28.809Z,87.73
2018-11-27T16:00:06.801Z,87.69
2018-11-27T16:00:45.243Z,87.67
2018-11-27T16:01:22.947Z,87.66
2018-11-27T16:02:00.801Z,87.65
2018-11-27T16:02:38.651Z,87.63
2018-11-27T16:03:16.525Z,87.64
2018-11-27T16:03:54.323Z,87.67
2018-11-27T16:04:32.255Z,87.68
2018-11-27T16:05:10.307Z,87.67
2018-11-27T16:05:48.089Z,87.65
2018-11-27T16:06:25.823Z,87.62
2018-11-27T16:07:03.793Z,87.63
2018-11-27T16:07:41.504Z,87.60
2018-11-27T16:08:19.577Z,87.59
2018-11-27T16:08:57.298Z,87.56
2018-11-27T16:09:35.252Z,87.49
2018-11-27T16:10:14.379Z,87.47
2018-11-27T16:10:52.199Z,87.47
2018-11-27T16:11:30.055Z,87.48
2018-11-27T16:12:07.868Z,87.46
2018-11-27T16:12:45.764Z,87.44
2018-11-27T16:13:23.467Z,87.43
2018-11-27T16:14:01.339Z,87.44
2018-11-27T16:14:39.059Z,87.45
2018-11-27T16:15:21.217Z,87.42
2018-11-27T16:15:59.089Z,87.40
2018-11-27T16:16:37.024Z,87.29
2018-11-27T16:17:14.902Z,87.06
2018-11-27T16:17:53.322Z,87.07
2018-11-27T16:18:31.082Z,87.10
2018-11-27T16:19:08.852Z,87.12
2018-11-27T16:19:46.776Z,87.10
2018-11-27T16:20:24.622Z,87.05
2018-11-27T16:21:02.389Z,87.03
2018-11-27T16:21:40.108Z,87.06
2018-11-27T16:22:18.020Z,87.08
2018-11-27T16:22:56.413Z,87.09
2018-11-27T16:23:34.254Z,87.13
2018-11-27T16:24:12.228Z,87.17
2018-11-27T16:24:49.993Z,87.18
2018-11-27T16:25:30.744Z,87.16
2018-11-27T16:26:08.641Z,87.12
2018-11-27T16:26:46.568Z,87.09
2018-11-27T16:27:24.464Z,87.06
2018-11-27T16:28:02.324Z,87.04
2018-11-27T16:28:40.431Z,87.04
2018-11-27T16:29:18.224Z,87.01
2018-11-27T16:29:56.081Z,86.99
2018-11-27T16:30:34.548Z,86.99
2018-11-27T16:31:12.445Z,87.02
2018-11-27T16:31:50.243Z,87.06
2018-11-27T16:32:28.069Z,87.07
2018-11-27T16:33:05.875Z,87.07
2018-11-27T16:33:43.668Z,87.09
2018-11-27T16:34:21.538Z,87.10
2018-11-27T16:34:59.319Z,87.08
2018-11-27T16:35:37.322Z,87.05
2018-11-27T16:36:14.993Z,87.02
2018-11-27T16:36:52.751Z,87.00
2018-11-27T16:37:30.632Z,86.99
2018-11-27T16:38:08.833Z,87.00
2018-11-27T16:38:46.671Z,87.01
2018-11-27T16:39:24.475Z,87.04
2018-11-27T16:40:02.246Z,87.09
2018-11-27T16:40:41.914Z,87.12
2018-11-27T16:41:19.859Z,87.13
2018-11-27T16:41:57.614Z,87.12
2018-11-27T16:42:35.450Z,87.12
2018-11-27T16:43:13.237Z,87.11
2018-11-27T16:43:50.984Z,87.13
2018-11-27T16:44:28.852Z,87.12
2018-11-27T16:45:07.218Z,87.08
2018-11-27T16:45:44.960Z,87.05
2018-11-27T16:46:22.664Z,87.05
2018-11-27T16:47:00.394Z,87.06
2018-11-27T16:47:38.197Z,87.08
2018-11-27T16:48:16.422Z,87.08
2018-11-27T16:48:54.284Z,86.81
2018-11-27T16:49:32.151Z,86.81
2018-11-27T16:50:10.794Z,87.05
2018-11-27T16:50:48.771Z,87.06
2018-11-27T16:51:26.553Z,87.05
2018-11-27T16:52:04.299Z,87.03
2018-11-27T16:52:42.105Z,87.03
2018-11-27T16:53:19.805Z,87.02
2018-11-27T16:53:57.455Z,87.05
2018-11-27T16:54:35.258Z,87.06
2018-11-27T16:55:14.270Z,87.06
2018-11-27T16:55:52.223Z,87.03
2018-11-27T16:56:30.227Z,86.99
2018-11-27T16:57:08.185Z,86.99
2018-11-27T16:57:46.139Z,86.97
2018-11-27T16:58:24.214Z,86.99
2018-11-27T16:59:01.952Z,87.04
2018-11-27T16:59:39.779Z,87.07
2018-11-27T17:00:24.594Z,87.10
2018-11-27T17:01:02.597Z,87.11
2018-11-27T17:01:40.914Z,87.15
2018-11-27T17:02:18.856Z,87.17
2018-11-27T17:03:00.299Z,87.15
2018-11-27T17:03:38.222Z,87.17
2018-11-27T17:04:16.084Z,87.19
2018-11-27T17:04:53.998Z,87.17
2018-11-27T17:05:39.451Z,87.10
2018-11-27T17:06:17.245Z,87.05
2018-11-27T17:06:55.160Z,87.03
2018-11-27T17:07:33.130Z,86.99
2018-11-27T17:08:11.081Z,87.04
2018-11-27T17:08:49.088Z,87.08
2018-11-27T17:09:27.053Z,87.05
2018-11-27T17:10:04.989Z,87.06
2018-11-27T17:10:44.079Z,87.07
2018-11-27T17:11:21.947Z,87.08
2018-11-27T17:11:59.932Z,87.04
2018-11-27T17:12:37.817Z,87.04
2018-11-27T17:13:16.459Z,87.08
2018-11-27T17:13:54.315Z,87.09
2018-11-27T17:14:32.290Z,87.10
2018-11-27T17:15:14.612Z,87.13
2018-11-27T17:15:52.457Z,87.12
2018-11-27T17:16:30.385Z,87.07
2018-11-27T17:17:08.543Z,87.03
2018-11-27T17:17:46.467Z,87.07
2018-11-27T17:18:24.269Z,86.63
2018-11-27T17:19:02.296Z,86.63
2018-11-27T17:19:40.381Z,87.14
2018-11-27T17:20:25.690Z,87.14
2018-11-27T17:21:03.462Z,87.16
2018-11-27T17:21:41.500Z,87.17
2018-11-27T17:22:19.287Z,87.20
2018-11-27T17:22:57.678Z,87.19
2018-11-27T17:23:35.652Z,87.19
2018-11-27T17:24:13.631Z,87.18
2018-11-27T17:24:51.481Z,87.20
2018-11-27T17:25:29.366Z,87.27
2018-11-27T17:26:07.183Z,87.29
2018-11-27T17:26:44.909Z,87.30
2018-11-27T17:27:22.830Z,87.29
2018-11-27T17:28:04.738Z,87.32
2018-11-27T17:28:42.649Z,87.27
2018-11-27T17:29:20.444Z,87.29
2018-11-27T17:29:58.407Z,87.14
2018-11-27T17:30:52.750Z,87.14
2018-11-27T17:31:30.700Z,87.40
2018-11-27T17:32:08.934Z,87.42
2018-11-27T17:32:46.964Z,87.44
2018-11-27T17:33:32.158Z,87.45
2018-11-27T17:34:14.726Z,87.45
2018-11-27T17:34:52.598Z,87.45
2018-11-27T17:35:30.868Z,87.46
2018-11-27T17:36:10.326Z,87.45
2018-11-27T17:36:48.314Z,87.43
2018-11-27T17:37:26.069Z,87.41
2018-11-27T17:38:03.886Z,87.37
2018-11-27T17:38:42.041Z,87.40
2018-11-27T17:39:19.967Z,87.40
2018-11-27T17:39:57.885Z,87.39
2018-11-27T17:40:35.705Z,87.37
2018-11-27T17:41:13.771Z,87.39
2018-11-27T17:41:52.004Z,87.19
2018-11-27T17:42:29.895Z,87.19
2018-11-27T17:43:07.884Z,87.36
2018-11-27T17:43:45.866Z,87.35
2018-11-27T17:44:23.897Z,87.37
2018-11-27T17:45:01.768Z,87.37
2018-11-27T17:45:39.495Z,87.36
2018-11-27T17:46:17.379Z,87.39
2018-11-27T17:46:55.225Z,87.41
2018-11-27T17:47:33.095Z,87.45
2018-11-27T17:48:11.063Z,87.50
2018-11-27T17:48:48.990Z,87.53
2018-11-27T17:49:26.850Z,87.55
2018-11-27T17:50:04.562Z,87.55
2018-11-27T17:50:42.358Z,87.56
2018-11-27T17:51:20.328Z,87.56
2018-11-27T17:51:58.119Z,87.51
2018-11-27T17:52:35.891Z,87.52
2018-11-27T17:53:13.713Z,87.54
2018-11-27T17:53:51.553Z,87.56
2018-11-27T17:54:29.373Z,87.53
2018-11-27T17:55:07.907Z,87.54
2018-11-27T17:55:45.855Z,87.58
2018-11-27T17:56:23.677Z,87.58
2018-11-27T17:57:01.505Z,87.63
2018-11-27T17:57:39.421Z,87.62
2018-11-27T17:58:22.645Z,87.57
2018-11-27T17:58:56.062Z,87.64
2018-11-27T17:59:34.123Z,87.66
2018-11-27T18:00:31.162Z,87.66
2018-11-27T18:01:09.908Z,87.65
2018-11-27T18:01:47.710Z,87.63
2018-11-27T18:02:25.576Z,87.58
2018-11-27T18:03:11.081Z,87.58
2018-11-27T18:03:48.948Z,87.59
2018-11-27T18:04:26.864Z,87.59
2018-11-27T18:05:04.726Z,87.60
2018-11-27T18:05:42.629Z,87.67
2018-11-27T18:06:20.347Z,87.69
2018-11-27T18:06:58.126Z,87.74
2018-11-27T18:07:36.099Z,87.80
2018-11-27T18:08:14.086Z,87.85
2018-11-27T18:08:51.944Z,87.85
2018-11-27T18:09:29.932Z,87.88
2018-11-27T18:10:08.930Z,87.90
2018-11-27T18:10:46.776Z,87.95
2018-11-27T18:11:24.689Z,87.96
2018-11-27T18:12:02.586Z,87.98
2018-11-27T18:12:40.443Z,87.98
2018-11-27T18:13:18.381Z,87.98
2018-11-27T18:13:56.159Z,87.93
2018-11-27T18:14:34.138Z,87.93
2018-11-27T18:15:17.054Z,87.95
2018-11-27T18:15:57.518Z,87.98
2018-11-27T18:16:35.280Z,88.02
2018-11-27T18:17:13.156Z,88.02
2018-11-27T18:17:51.086Z,88.04
2018-11-27T18:18:28.922Z,88.02
2018-11-27T18:19:06.745Z,87.99
2018-11-27T18:19:44.710Z,88.01
2018-11-27T18:20:22.827Z,88.02
2018-11-27T18:21:00.751Z,87.96
2018-11-27T18:21:38.483Z,87.94
2018-11-27T18:22:16.305Z,87.91
2018-11-27T18:22:54.235Z,87.89
2018-11-27T18:23:32.021Z,87.89
2018-11-27T18:24:10.217Z,87.90
2018-11-27T18:24:48.339Z,87.91
2018-11-27T18:25:26.069Z,87.92
2018-11-27T18:26:04.131Z,87.97
2018-11-27T18:26:41.990Z,87.97
2018-11-27T18:27:19.930Z,88.00
2018-11-27T18:27:57.827Z,88.03
2018-11-27T18:28:35.727Z,88.02
2018-11-27T18:29:13.875Z,88.01
2018-11-27T18:29:51.601Z,88.09
2018-11-27T18:30:29.524Z,88.11
2018-11-27T18:31:07.522Z,88.09
2018-11-27T18:31:45.510Z,88.12
2018-11-27T18:32:23.451Z,88.15
2018-11-27T18:33:01.389Z,88.17
2018-11-27T18:33:39.334Z,88.17
2018-11-27T18:34:17.201Z,88.16
2018-11-27T18:34:54.954Z,88.16
2018-11-27T18:35:32.890Z,88.13
2018-11-27T18:36:10.876Z,88.13
2018-11-27T18:36:48.717Z,88.13
2018-11-27T18:37:26.428Z,88.09